Time,TemperatureF,DewpointF,PressureIn,WindDirection,WindDirectionDegrees,WindSpeedMPH,WindSpeedGustMPH,Humidity,HourlyPrecipIn,Conditions,Clouds,dailyrainin,SolarRadiationWatts/m^2,SoftwareType,DateUTC
2013-12-18 00:12:00,23.0,23.0,-100.00,North,-999,0.0,2.0,98,0.00,,,0.00,0.000000,,2013-12-18 08:12:00,
2013-12-18 00:22:00,23.0,23.0,-100.00,North,-999,0.0,2.0,98,0.00,,,0.00,0.000000,,2013-12-18 08:22:00,
2013-12-18 00:33:00,23.0,23.0,-100.00,North,-999,0.0,2.0,98,0.00,,,0.00,0.000000,,2013-12-18 08:33:00,
2013-12-18 00:42:00,23.0,23.0,-100.00,North,-999,0.0,2.0,98,0.00,,,0.00,0.000000,,2013-12-18 08:42:00,
2013-12-18 01:11:00,23.0,23.0,-100.00,North,-999,0.0,2.0,98,0.00,,,0.00,0.000000,,2013-12-18 09:11:00,
2013-12-18 01:22:00,23.0,23.0,-100.00,North,-999,0.0,2.0,98,0.00,,,0.00,0.000000,,2013-12-18 09:22:00,
2013-12-18 01:33:00,23.0,23.0,-100.00,North,-999,0.0,2.0,98,0.00,,,0.00,0.000000,,2013-12-18 09:33:00,
2013-12-18 01:43:00,23.0,23.0,-100.00,North,-999,0.0,2.0,98,0.00,,,0.00,0.000000,,2013-12-18 09:43:00,
2013-12-18 02:13:00,25.0,23.0,-100.00,North,-999,0.0,3.0,93,0.00,,,0.00,0.000000,,2013-12-18 10:13:00,
2013-12-18 02:23:00,25.0,23.0,-100.00,North,-999,0.0,3.0,93,0.00,,,0.00,0.000000,,2013-12-18 10:23:00,
2013-12-18 02:33:00,25.0,23.0,-100.00,North,-999,0.0,3.0,93,0.00,,,0.00,0.000000,,2013-12-18 10:33:00,
2013-12-18 02:42:00,25.0,23.0,-100.00,North,-999,0.0,3.0,93,0.00,,,0.00,0.000000,,2013-12-18 10:42:00,
2013-12-18 03:12:00,26.0,25.0,-100.00,North,-999,0.0,0.0,95,0.00,,,0.00,0.000000,,2013-12-18 11:12:00,
2013-12-18 03:23:00,26.0,25.0,-100.00,North,-999,0.0,0.0,95,0.00,,,0.00,0.000000,,2013-12-18 11:23:00,
2013-12-18 03:33:00,26.0,25.0,-100.00,North,-999,0.0,0.0,95,0.00,,,0.00,0.000000,,2013-12-18 11:33:00,
2013-12-18 03:42:00,26.0,25.0,-100.00,North,-999,0.0,0.0,95,0.00,,,0.00,0.000000,,2013-12-18 11:42:00,
2013-12-18 04:11:00,27.0,25.0,-100.00,North,-999,0.0,0.0,93,0.00,,,0.00,0.000000,,2013-12-18 12:11:00,
2013-12-18 04:42:00,27.0,25.0,-100.00,North,-999,0.0,0.0,93,0.00,,,0.00,0.000000,,2013-12-18 12:42:00,
2013-12-18 05:12:00,26.0,25.0,-100.00,East,88,1.0,4.0,95,0.00,,,0.00,0.000000,,2013-12-18 13:12:00,
2013-12-18 05:22:00,26.0,25.0,-100.00,East,88,1.0,4.0,95,0.00,,,0.00,0.000000,,2013-12-18 13:22:00,
2013-12-18 05:32:00,26.0,25.0,-100.00,East,88,1.0,4.0,95,0.00,,,0.00,0.000000,,2013-12-18 13:32:00,
2013-12-18 05:42:00,26.0,25.0,-100.00,East,88,1.0,4.0,95,0.00,,,0.00,0.000000,,2013-12-18 13:42:00,
2013-12-18 06:11:00,24.0,24.0,-100.00,North,-999,0.0,6.0,98,0.00,,,0.00,0.000000,,2013-12-18 14:11:00,
2013-12-18 06:21:00,24.0,24.0,-100.00,North,-999,0.0,6.0,98,0.00,,,0.00,0.000000,,2013-12-18 14:21:00,
2013-12-18 06:32:00,24.0,24.0,-100.00,North,-999,0.0,6.0,98,0.00,,,0.00,0.000000,,2013-12-18 14:32:00,
2013-12-18 06:42:00,24.0,24.0,-100.00,North,-999,0.0,6.0,98,0.00,,,0.00,0.000000,,2013-12-18 14:42:00,
2013-12-18 07:11:00,25.0,25.0,-100.00,SW,231,4.0,7.0,98,0.00,,,0.00,0.000000,,2013-12-18 15:11:00,
2013-12-18 07:21:00,25.0,25.0,-100.00,SW,231,4.0,7.0,98,0.00,,,0.00,0.000000,,2013-12-18 15:21:00,
2013-12-18 07:33:00,25.0,25.0,-100.00,SW,231,4.0,7.0,98,0.00,,,0.00,0.000000,,2013-12-18 15:33:00,
2013-12-18 07:44:00,25.0,25.0,-100.00,SW,231,4.0,7.0,98,0.00,,,0.00,0.000000,,2013-12-18 15:44:00,
2013-12-18 08:13:00,29.0,25.0,-100.00,North,-999,0.0,5.0,86,0.00,,,0.00,5.000000,,2013-12-18 16:13:00,
2013-12-18 08:23:00,29.0,25.0,-100.00,North,-999,0.0,5.0,86,0.00,,,0.00,5.000000,,2013-12-18 16:23:00,
2013-12-18 08:33:00,29.0,25.0,-100.00,North,-999,0.0,5.0,86,0.00,,,0.00,5.000000,,2013-12-18 16:33:00,
2013-12-18 08:42:00,29.0,25.0,-100.00,North,-999,0.0,5.0,86,0.00,,,0.00,5.000000,,2013-12-18 16:42:00,
2013-12-18 10:12:00,31.0,25.0,-100.00,North,-999,0.0,6.0,79,0.00,,,0.00,133.000000,,2013-12-18 18:12:00,
2013-12-18 10:22:00,31.0,25.0,-100.00,North,-999,0.0,6.0,79,0.00,,,0.00,133.000000,,2013-12-18 18:22:00,
2013-12-18 10:32:00,31.0,25.0,-100.00,North,-999,0.0,6.0,79,0.00,,,0.00,133.000000,,2013-12-18 18:32:00,
2013-12-18 10:42:00,31.0,25.0,-100.00,North,-999,0.0,6.0,79,0.00,,,0.00,133.000000,,2013-12-18 18:42:00,
2013-12-18 11:11:00,30.0,24.0,-100.00,North,-999,0.0,5.0,78,0.00,,,0.00,178.000000,,2013-12-18 19:11:00,
2013-12-18 11:21:00,30.0,24.0,-100.00,North,-999,0.0,5.0,78,0.00,,,0.00,178.000000,,2013-12-18 19:21:00,
2013-12-18 11:32:00,30.0,24.0,-100.00,North,-999,0.0,5.0,78,0.00,,,0.00,178.000000,,2013-12-18 19:32:00,
2013-12-18 11:42:00,30.0,24.0,-100.00,North,-999,0.0,5.0,78,0.00,,,0.00,178.000000,,2013-12-18 19:42:00,
2013-12-18 12:12:00,30.0,24.0,-100.00,SSE,156,3.0,6.0,77,0.00,,,0.00,201.000000,,2013-12-18 20:12:00,
2013-12-18 12:22:00,30.0,24.0,-100.00,SSE,156,3.0,6.0,77,0.00,,,0.00,201.000000,,2013-12-18 20:22:00,
2013-12-18 12:32:00,30.0,24.0,-100.00,SSE,156,3.0,6.0,77,0.00,,,0.00,201.000000,,2013-12-18 20:32:00,
2013-12-18 12:42:00,30.0,24.0,-100.00,SSE,156,3.0,6.0,77,0.00,,,0.00,201.000000,,2013-12-18 20:42:00,
2013-12-18 13:11:00,35.0,24.0,-100.00,North,-999,0.0,6.0,64,0.00,,,0.00,337.000000,,2013-12-18 21:11:00,
2013-12-18 13:21:00,35.0,24.0,-100.00,North,-999,0.0,6.0,64,0.00,,,0.00,337.000000,,2013-12-18 21:21:00,
2013-12-18 13:33:00,35.0,24.0,-100.00,North,-999,0.0,6.0,64,0.00,,,0.00,337.000000,,2013-12-18 21:33:00,
2013-12-18 13:43:00,35.0,24.0,-100.00,North,-999,0.0,6.0,64,0.00,,,0.00,337.000000,,2013-12-18 21:43:00,
2013-12-18 14:12:00,39.0,26.0,-100.00,North,-999,0.0,5.0,60,0.00,,,0.00,336.000000,,2013-12-18 22:12:00,
2013-12-18 14:22:00,39.0,26.0,-100.00,North,-999,0.0,5.0,60,0.00,,,0.00,336.000000,,2013-12-18 22:22:00,
2013-12-18 14:33:00,39.0,26.0,-100.00,North,-999,0.0,5.0,60,0.00,,,0.00,336.000000,,2013-12-18 22:33:00,
2013-12-18 14:43:00,39.0,26.0,-100.00,North,-999,0.0,5.0,60,0.00,,,0.00,336.000000,,2013-12-18 22:43:00,
2013-12-18 15:12:00,38.0,26.0,-100.00,North,-999,0.0,3.0,62,0.00,,,0.00,318.000000,,2013-12-18 23:12:00,
2013-12-18 15:22:00,38.0,26.0,-100.00,North,-999,0.0,3.0,62,0.00,,,0.00,318.000000,,2013-12-18 23:22:00,
2013-12-18 15:33:00,38.0,26.0,-100.00,North,-999,0.0,3.0,62,0.00,,,0.00,318.000000,,2013-12-18 23:33:00,
2013-12-18 15:42:00,38.0,26.0,-100.00,North,-999,0.0,3.0,62,0.00,,,0.00,318.000000,,2013-12-18 23:42:00,
2013-12-18 16:11:00,34.0,25.0,-100.00,NE,56,1.0,4.0,68,0.00,,,0.00,117.000000,,2013-12-19 00:11:00,
2013-12-18 16:22:00,34.0,25.0,-100.00,NE,56,1.0,4.0,68,0.00,,,0.00,117.000000,,2013-12-19 00:22:00,
2013-12-18 16:32:00,34.0,25.0,-100.00,NE,56,1.0,4.0,68,0.00,,,0.00,117.000000,,2013-12-19 00:32:00,
2013-12-18 16:42:00,34.0,25.0,-100.00,NE,56,1.0,4.0,68,0.00,,,0.00,117.000000,,2013-12-19 00:42:00,
2013-12-18 17:11:00,33.0,27.0,-100.00,SSE,152,1.0,4.0,78,0.00,,,0.00,13.000000,,2013-12-19 01:11:00,
2013-12-18 17:21:00,33.0,27.0,-100.00,SSE,152,1.0,4.0,78,0.00,,,0.00,13.000000,,2013-12-19 01:21:00,
2013-12-18 17:33:00,33.0,27.0,-100.00,SSE,152,1.0,4.0,78,0.00,,,0.00,13.000000,,2013-12-19 01:33:00,
2013-12-18 17:42:00,33.0,27.0,-100.00,SSE,152,1.0,4.0,78,0.00,,,0.00,13.000000,,2013-12-19 01:42:00,
2013-12-18 18:11:00,31.0,27.0,-100.00,SE,136,1.0,5.0,86,0.00,,,0.00,0.000000,,2013-12-19 02:11:00,
2013-12-18 18:22:00,31.0,27.0,-100.00,SE,136,1.0,5.0,86,0.00,,,0.00,0.000000,,2013-12-19 02:22:00,
2013-12-18 18:32:00,31.0,27.0,-100.00,SE,136,1.0,5.0,86,0.00,,,0.00,0.000000,,2013-12-19 02:32:00,
2013-12-18 18:42:00,31.0,27.0,-100.00,SE,136,1.0,5.0,86,0.00,,,0.00,0.000000,,2013-12-19 02:42:00,
2013-12-18 19:12:00,33.0,29.0,-100.00,WSW,237,3.0,12.0,85,0.00,,,0.00,0.000000,,2013-12-19 03:12:00,
2013-12-18 19:21:00,33.0,29.0,-100.00,WSW,237,3.0,12.0,85,0.00,,,0.00,0.000000,,2013-12-19 03:21:00,
2013-12-18 19:33:00,33.0,29.0,-100.00,WSW,237,3.0,12.0,85,0.00,,,0.00,0.000000,,2013-12-19 03:33:00,
2013-12-18 19:43:00,33.0,29.0,-100.00,WSW,237,3.0,12.0,85,0.00,,,0.00,0.000000,,2013-12-19 03:43:00,
2013-12-18 20:12:00,33.0,28.0,-100.00,South,185,7.0,12.0,80,0.00,,,0.00,0.000000,,2013-12-19 04:12:00,
2013-12-18 20:23:00,33.0,28.0,-100.00,South,185,7.0,12.0,80,0.00,,,0.00,0.000000,,2013-12-19 04:23:00,
2013-12-18 20:33:00,33.0,28.0,-100.00,South,185,7.0,12.0,80,0.00,,,0.00,0.000000,,2013-12-19 04:33:00,
2013-12-18 20:42:00,33.0,28.0,-100.00,South,185,7.0,12.0,80,0.00,,,0.00,0.000000,,2013-12-19 04:42:00,
2013-12-18 21:12:00,33.0,27.0,-100.00,North,-999,0.0,14.0,78,0.00,,,-99.99,0.000000,,2013-12-19 05:12:00,
2013-12-18 21:22:00,33.0,27.0,-100.00,North,-999,0.0,14.0,78,0.00,,,-99.99,0.000000,,2013-12-19 05:22:00,
2013-12-18 21:33:00,33.0,27.0,-100.00,North,-999,0.0,14.0,78,0.00,,,-99.99,0.000000,,2013-12-19 05:33:00,
2013-12-18 21:42:00,33.0,27.0,-100.00,North,-999,0.0,14.0,78,0.00,,,-99.99,0.000000,,2013-12-19 05:42:00,
2013-12-18 22:12:00,32.0,27.0,-100.00,North,-999,0.0,6.0,83,0.00,,,0.00,0.000000,,2013-12-19 06:12:00,
2013-12-18 22:22:00,32.0,27.0,-100.00,North,-999,0.0,6.0,83,0.00,,,0.00,0.000000,,2013-12-19 06:22:00,
2013-12-18 22:32:00,32.0,27.0,-100.00,North,-999,0.0,6.0,83,0.00,,,0.00,0.000000,,2013-12-19 06:32:00,
2013-12-18 22:42:00,32.0,27.0,-100.00,North,-999,0.0,6.0,83,0.00,,,0.00,0.000000,,2013-12-19 06:42:00,
2013-12-18 23:11:00,34.0,29.0,-100.00,SW,215,2.0,7.0,82,0.00,,,0.00,0.000000,,2013-12-19 07:11:00,
2013-12-18 23:21:00,34.0,29.0,-100.00,SW,215,2.0,7.0,82,0.00,,,0.00,0.000000,,2013-12-19 07:21:00,
2013-12-18 23:32:00,34.0,29.0,-100.00,SW,215,2.0,7.0,82,0.00,,,0.00,0.000000,,2013-12-19 07:32:00,
2013-12-18 23:42:00,34.0,29.0,-100.00,SW,215,2.0,7.0,82,0.00,,,0.00,0.000000,,2013-12-19 07:42:00,